Time;durP1;ratioP1;P1;durP2;ratioP2;P2;SDS_P1;SDS_P2;PMS_P1;PMS_P2;Temp;Humidity;BMP_temperature;BMP_pressure;BME280_temperature;BME280_humidity;BME280_pressure;Samples;Min_cycle;Max_cycle;Signal;HPM_P1;HPM_P2
2020/12/05 00:01:07;;;;;;;32.67;22.55;;;;;;;;;;5083140;28;20183;-78
2020/12/05 00:03:33;;;;;;;36.10;23.42;;;;;;;;;;5084764;28;20622;-77
2020/12/05 00:05:59;;;;;;;33.90;22.25;;;;;;;;;;5085987;28;20187;-77
2020/12/05 00:08:25;;;;;;;31.27;22.25;;;;;;;;;;5075213;28;20222;-78
2020/12/05 00:10:51;;;;;;;35.78;21.88;;;;;;;;;;5092480;28;20176;-76
2020/12/05 00:13:17;;;;;;;33.15;21.52;;;;;;;;;;5081653;28;20525;-77
2020/12/05 00:15:43;;;;;;;33.33;22.27;;;;;;;;;;5092665;28;20178;-77
2020/12/05 00:18:09;;;;;;;34.08;22.92;;;;;;;;;;5090073;28;20192;-78
2020/12/05 00:20:35;;;;;;;36.20;21.83;;;;;;;;;;5091307;28;20194;-78
2020/12/05 00:23:01;;;;;;;33.33;22.20;;;;;;;;;;5073147;28;20528;-78
2020/12/05 00:25:27;;;;;;;32.00;22.27;;;;;;;;;;5086885;28;20250;-76
2020/12/05 00:27:53;;;;;;;33.30;22.58;;;;;;;;;;5074162;28;20691;-76
2020/12/05 00:30:19;;;;;;;31.63;22.10;;;;;;;;;;5072931;28;20187;-78
2020/12/05 00:32:45;;;;;;;32.55;22.23;;;;;;;;;;5073017;28;20251;-78
2020/12/05 00:35:12;;;;;;;31.17;22.17;;;;;;;;;;5072517;28;20238;-77
2020/12/05 00:37:38;;;;;;;34.42;22.10;;;;;;;;;;5086144;28;20204;-78
2020/12/05 00:40:05;;;;;;;33.45;22.23;;;;;;;;;;5084015;28;20176;-77
2020/12/05 00:42:31;;;;;;;36.83;23.58;;;;;;;;;;5090460;28;20216;-77
2020/12/05 00:44:57;;;;;;;35.05;22.20;;;;;;;;;;5082872;28;20188;-77
2020/12/05 00:47:23;;;;;;;33.83;22.20;;;;;;;;;;5090629;28;20184;-77
2020/12/05 00:49:49;;;;;;;32.30;21.35;;;;;;;;;;5092552;28;20183;-77
2020/12/05 00:52:15;;;;;;;37.40;22.90;;;;;;;;;;5092808;28;20180;-78
2020/12/05 00:54:41;;;;;;;35.47;23.95;;;;;;;;;;5093925;28;20191;-75
2020/12/05 00:57:07;;;;;;;33.45;23.65;;;;;;;;;;5079119;28;20541;-77
2020/12/05 00:59:33;;;;;;;33.38;22.35;;;;;;;;;;5076152;28;20187;-76
2020/12/05 01:01:59;;;;;;;34.65;23.00;;;;;;;;;;5089824;28;20187;-79
2020/12/05 01:04:25;;;;;;;35.30;23.83;;;;;;;;;;5089683;28;20175;-77
2020/12/05 01:06:51;;;;;;;33.40;22.35;;;;;;;;;;5096533;28;20183;-77
2020/12/05 01:09:17;;;;;;;37.55;24.45;;;;;;;;;;5096570;28;20199;-78
2020/12/05 01:11:45;;;;;;;39.35;24.95;;;;;;;;;;5090097;28;20211;-78
2020/12/05 01:14:11;;;;;;;36.30;24.83;;;;;;;;;;5082458;28;20641;-77
2020/12/05 01:16:37;;;;;;;36.40;23.20;;;;;;;;;;5075945;28;20184;-77
2020/12/05 01:19:03;;;;;;;37.72;23.02;;;;;;;;;;5083697;28;20346;-76
2020/12/05 01:21:30;;;;;;;37.45;25.52;;;;;;;;;;5084534;28;20254;-77
2020/12/05 01:23:56;;;;;;;35.40;23.95;;;;;;;;;;5092729;28;20633;-77
2020/12/05 01:26:22;;;;;;;33.67;23.33;;;;;;;;;;5075813;28;20180;-76
2020/12/05 01:28:48;;;;;;;31.08;22.40;;;;;;;;;;5088391;28;20207;-78
2020/12/05 01:31:14;;;;;;;33.22;23.35;;;;;;;;;;5075706;28;20183;-76
2020/12/05 01:33:40;;;;;;;37.47;24.67;;;;;;;;;;5087495;28;20191;-76
2020/12/05 01:36:06;;;;;;;36.15;22.88;;;;;;;;;;5075575;28;20625;-78
2020/12/05 01:38:32;;;;;;;34.60;23.08;;;;;;;;;;5089785;28;20289;-76
2020/12/05 01:40:59;;;;;;;36.45;23.98;;;;;;;;;;5093694;28;20202;-76
2020/12/05 01:43:26;;;;;;;38.40;24.38;;;;;;;;;;5090787;28;20199;-77
2020/12/05 01:45:53;;;;;;;37.22;24.38;;;;;;;;;;5095288;28;20179;-76
2020/12/05 01:48:19;;;;;;;32.70;23.13;;;;;;;;;;5094976;28;20203;-76
2020/12/05 01:50:45;;;;;;;35.30;23.33;;;;;;;;;;5086662;28;20225;-77
2020/12/05 01:53:13;;;;;;;33.25;22.80;;;;;;;;;;5079347;28;20193;-77
2020/12/05 01:55:41;;;;;;;37.35;23.23;;;;;;;;;;5075610;28;20525;-78
2020/12/05 01:58:07;;;;;;;34.83;23.83;;;;;;;;;;5093099;28;20191;-76
2020/12/05 02:00:33;;;;;;;31.05;22.02;;;;;;;;;;5076846;28;20229;-77
2020/12/05 02:03:00;;;;;;;33.50;23.88;;;;;;;;;;5081225;28;20202;-77
2020/12/05 02:05:44;;;;;;;35.58;24.20;;;;;;;;;;5093672;28;20182;-78
2020/12/05 02:08:13;;;;;;;34.92;22.60;;;;;;;;;;5090285;28;20246;-80
2020/12/05 02:10:42;;;;;;;34.63;23.63;;;;;;;;;;5093607;28;20213;-77
2020/12/05 02:13:13;;;;;;;35.97;24.33;;;;;;;;;;5087630;28;20190;-76
2020/12/05 02:15:40;;;;;;;37.58;24.85;;;;;;;;;;5098167;28;20171;-77
2020/12/05 02:18:07;;;;;;;37.53;24.98;;;;;;;;;;5097474;28;20195;-76
2020/12/05 02:20:34;;;;;;;36.33;22.80;;;;;;;;;;5085513;28;20187;-76
2020/12/05 02:23:16;;;;;;;38.92;26.10;;;;;;;;;;5099124;28;20253;-77
2020/12/05 02:25:43;;;;;;;36.97;24.27;;;;;;;;;;5090617;28;20698;-76
2020/12/05 02:28:09;;;;;;;34.92;24.27;;;;;;;;;;5079098;28;20208;-79
2020/12/05 02:30:35;;;;;;;37.05;25.52;;;;;;;;;;5079391;28;20574;-76
2020/12/05 02:33:02;;;;;;;37.33;24.73;;;;;;;;;;5079760;28;20172;-77
2020/12/05 02:35:28;;;;;;;37.85;24.77;;;;;;;;;;5079882;28;20180;-76
2020/12/05 02:37:58;;;;;;;37.72;24.35;;;;;;;;;;5082698;28;20259;-77
2020/12/05 02:40:24;;;;;;;38.75;26.50;;;;;;;;;;5081216;28;20168;-76
2020/12/05 02:42:50;;;;;;;37.90;25.13;;;;;;;;;;5089898;28;20167;-78
2020/12/05 02:45:16;;;;;;;40.55;25.67;;;;;;;;;;5094813;28;20175;-76
2020/12/05 02:47:42;;;;;;;34.72;24.73;;;;;;;;;;5096602;28;20191;-77
2020/12/05 02:50:08;;;;;;;37.38;25.38;;;;;;;;;;5090893;28;20538;-76
2020/12/05 02:52:34;;;;;;;42.60;25.70;;;;;;;;;;5086711;28;20175;-77
2020/12/05 02:55:00;;;;;;;38.20;25.77;;;;;;;;;;5094656;28;20196;-76
2020/12/05 02:57:26;;;;;;;39.97;25.83;;;;;;;;;;5094795;28;20179;-77
2020/12/05 02:59:52;;;;;;;38.58;26.90;;;;;;;;;;5095035;28;20194;-77
2020/12/05 03:02:18;;;;;;;39.50;24.80;;;;;;;;;;5094433;28;20178;-78
2020/12/05 03:04:44;;;;;;;43.65;26.52;;;;;;;;;;5094172;28;20175;-77
2020/12/05 03:07:11;;;;;;;39.55;26.15;;;;;;;;;;5094848;28;20502;-77
2020/12/05 03:09:37;;;;;;;42.05;26.55;;;;;;;;;;5097838;28;20205;-77
2020/12/05 03:12:03;;;;;;;43.38;26.55;;;;;;;;;;5099346;28;20266;-78
2020/12/05 03:14:29;;;;;;;38.88;26.75;;;;;;;;;;5080254;28;20679;-78
2020/12/05 03:16:55;;;;;;;39.33;25.48;;;;;;;;;;5082002;28;20215;-77
2020/12/05 03:19:21;;;;;;;40.28;25.75;;;;;;;;;;5078018;28;20238;-78
2020/12/05 03:21:47;;;;;;;42.72;27.35;;;;;;;;;;5082027;28;20533;-77
2020/12/05 03:24:13;;;;;;;39.90;25.27;;;;;;;;;;5091512;28;20187;-76
2020/12/05 03:26:39;;;;;;;40.50;26.40;;;;;;;;;;5093485;28;20179;-77
2020/12/05 03:29:05;;;;;;;37.08;24.83;;;;;;;;;;5086605;28;20196;-78
2020/12/05 03:32:17;;;;;;;39.42;26.45;;;;;;;;;;5085389;28;20183;-77
2020/12/05 03:34:21;;;;;;;45.25;28.10;;;;;;;;;;5083562;28;20219;-76
2020/12/05 03:36:47;;;;;;;42.05;26.20;;;;;;;;;;5083277;28;20180;-76
2020/12/05 03:39:13;;;;;;;43.35;26.02;;;;;;;;;;5090232;28;20199;-76
2020/12/05 03:41:39;;;;;;;41.58;27.30;;;;;;;;;;5089553;28;20234;-77
2020/12/05 03:44:05;;;;;;;43.00;27.52;;;;;;;;;;5073539;28;20259;-76
2020/12/05 03:46:31;;;;;;;39.33;26.95;;;;;;;;;;5079439;28;20180;-76
2020/12/05 03:48:59;;;;;;;41.00;26.60;;;;;;;;;;5081189;28;20196;-76
2020/12/05 03:51:25;;;;;;;43.55;27.85;;;;;;;;;;5078592;28;20204;-76
2020/12/05 03:53:51;;;;;;;40.42;26.52;;;;;;;;;;5074574;28;20196;-77
2020/12/05 03:56:17;;;;;;;44.03;27.80;;;;;;;;;;5075854;28;20250;-78
2020/12/05 03:58:43;;;;;;;42.63;27.58;;;;;;;;;;5076687;28;20244;-76
2020/12/05 04:01:09;;;;;;;38.80;26.02;;;;;;;;;;5089398;28;20240;-78
2020/12/05 04:03:35;;;;;;;39.67;26.58;;;;;;;;;;5093516;28;20183;-77
2020/12/05 04:06:01;;;;;;;39.92;25.70;;;;;;;;;;5093668;28;20191;-77
2020/12/05 04:08:28;;;;;;;42.70;26.52;;;;;;;;;;5089775;28;20215;-77
2020/12/05 04:10:54;;;;;;;41.10;27.40;;;;;;;;;;5100283;28;20278;-76
2020/12/05 04:13:21;;;;;;;39.15;26.15;;;;;;;;;;5082357;28;20195;-76
2020/12/05 04:15:47;;;;;;;44.47;27.60;;;;;;;;;;5091445;28;20630;-77
2020/12/05 04:18:13;;;;;;;37.95;25.95;;;;;;;;;;5093062;28;20668;-77
2020/12/05 04:20:39;;;;;;;40.45;26.95;;;;;;;;;;5092650;28;20220;-76
2020/12/05 04:23:05;;;;;;;39.90;27.17;;;;;;;;;;5093577;28;20171;-77
2020/12/05 04:25:31;;;;;;;42.70;27.70;;;;;;;;;;5093578;28;20224;-78
2020/12/05 04:27:57;;;;;;;39.03;26.60;;;;;;;;;;5092585;28;20552;-79
2020/12/05 04:30:23;;;;;;;41.17;26.95;;;;;;;;;;5088865;28;20229;-77
2020/12/05 04:32:49;;;;;;;42.30;27.73;;;;;;;;;;5090576;28;20168;-78
2020/12/05 04:35:15;;;;;;;39.75;26.90;;;;;;;;;;5077724;28;20207;-78
2020/12/05 04:37:41;;;;;;;39.88;26.95;;;;;;;;;;5077587;28;20237;-77
2020/12/05 04:40:07;;;;;;;40.95;26.42;;;;;;;;;;5088648;28;20183;-80
2020/12/05 04:42:33;;;;;;;38.72;26.23;;;;;;;;;;5076501;28;20172;-76
2020/12/05 04:45:00;;;;;;;42.67;26.70;;;;;;;;;;5093611;28;20240;-77
2020/12/05 04:47:27;;;;;;;44.50;28.55;;;;;;;;;;5096546;28;20254;-76
2020/12/05 04:49:56;;;;;;;40.10;27.65;;;;;;;;;;5096675;28;20262;-79
2020/12/05 04:52:22;;;;;;;43.42;26.70;;;;;;;;;;5096291;28;20167;-77
2020/12/05 04:54:52;;;;;;;45.53;28.13;;;;;;;;;;5084132;28;20229;-77
2020/12/05 04:57:21;;;;;;;43.58;29.20;;;;;;;;;;5081963;28;20172;-75
2020/12/05 04:59:47;;;;;;;40.88;27.65;;;;;;;;;;5096560;28;20340;-78
2020/12/05 05:02:16;;;;;;;41.75;27.25;;;;;;;;;;5089236;28;20184;-76
2020/12/05 05:04:42;;;;;;;38.88;26.38;;;;;;;;;;5096239;28;20179;-78
2020/12/05 05:07:08;;;;;;;40.15;27.60;;;;;;;;;;5096235;28;20574;-76
2020/12/05 05:09:34;;;;;;;44.53;28.50;;;;;;;;;;5095304;28;20730;-77
2020/12/05 05:12:00;;;;;;;43.10;28.23;;;;;;;;;;5095827;28;20186;-77
2020/12/05 05:14:36;;;;;;;41.85;28.40;;;;;;;;;;5095556;28;20203;-76
2020/12/05 05:17:05;;;;;;;42.55;27.77;;;;;;;;;;5094507;28;20171;-77
2020/12/05 05:19:34;;;;;;;42.35;27.33;;;;;;;;;;5089612;28;20206;-76
2020/12/05 05:22:00;;;;;;;37.05;26.23;;;;;;;;;;5090793;28;20694;-78
2020/12/05 05:24:26;;;;;;;39.08;26.33;;;;;;;;;;5092434;28;20267;-76
2020/12/05 05:27:03;;;;;;;41.20;26.77;;;;;;;;;;5075932;28;20603;-77
2020/12/05 05:29:33;;;;;;;46.05;29.33;;;;;;;;;;5075583;28;20200;-75
2020/12/05 05:32:06;;;;;;;43.50;28.38;;;;;;;;;;5082123;28;20180;-78
2020/12/05 05:34:32;;;;;;;45.00;29.13;;;;;;;;;;5094589;28;20203;-77
2020/12/05 05:36:58;;;;;;;42.28;28.45;;;;;;;;;;5096347;28;20524;-77
2020/12/05 05:39:26;;;;;;;44.75;29.17;;;;;;;;;;5079585;28;20656;-78
2020/12/05 05:41:54;;;;;;;40.55;27.10;;;;;;;;;;5085885;28;20265;-76
2020/12/05 05:44:21;;;;;;;43.17;29.20;;;;;;;;;;5085362;28;20173;-77
2020/12/05 05:46:50;;;;;;;43.90;29.05;;;;;;;;;;5075549;28;20184;-77
2020/12/05 05:49:29;;;;;;;46.78;29.60;;;;;;;;;;5087497;28;20191;-78
2020/12/05 05:51:56;;;;;;;45.67;29.77;;;;;;;;;;5095602;28;20218;-77
2020/12/05 05:54:34;;;;;;;43.95;27.73;;;;;;;;;;5094055;28;20244;-78
2020/12/05 05:57:03;;;;;;;44.58;29.17;;;;;;;;;;5083148;28;20176;-78
2020/12/05 05:59:33;;;;;;;44.60;29.15;;;;;;;;;;5094917;28;20192;-78
2020/12/05 06:02:00;;;;;;;39.83;27.98;;;;;;;;;;5094748;28;20514;-78
2020/12/05 06:04:33;;;;;;;44.35;28.95;;;;;;;;;;5093960;28;20175;-77
2020/12/05 06:07:00;;;;;;;39.35;28.05;;;;;;;;;;5095333;28;20528;-76
2020/12/05 06:09:45;;;;;;;42.50;29.20;;;;;;;;;;5096536;28;20218;-76
2020/12/05 06:12:12;;;;;;;42.35;28.17;;;;;;;;;;5090712;28;20179;-78
2020/12/05 06:14:40;;;;;;;40.42;26.38;;;;;;;;;;5088151;28;20238;-78
2020/12/05 06:17:07;;;;;;;45.80;29.05;;;;;;;;;;5087942;28;20176;-77
2020/12/05 06:19:33;;;;;;;43.78;28.27;;;;;;;;;;5091785;28;20237;-77
2020/12/05 06:21:59;;;;;;;43.53;28.40;;;;;;;;;;5094862;28;20183;-77
2020/12/05 06:24:51;;;;;;;41.40;28.05;;;;;;;;;;5094374;28;20641;-77
2020/12/05 06:27:18;;;;;;;41.13;28.90;;;;;;;;;;5094727;28;20240;-76
2020/12/05 06:29:44;;;;;;;43.47;28.27;;;;;;;;;;5084866;28;20203;-76
2020/12/05 06:32:11;;;;;;;43.55;28.00;;;;;;;;;;5087997;28;20184;-77
2020/12/05 06:34:37;;;;;;;41.80;29.08;;;;;;;;;;5084145;28;20184;-78
2020/12/05 06:37:03;;;;;;;46.83;29.40;;;;;;;;;;5090908;28;20176;-78
2020/12/05 06:39:29;;;;;;;46.13;29.27;;;;;;;;;;5095614;28;20195;-77
2020/12/05 06:41:55;;;;;;;40.72;27.73;;;;;;;;;;5090414;28;20183;-78
2020/12/05 06:44:23;;;;;;;41.30;28.00;;;;;;;;;;5093739;28;20180;-78
2020/12/05 06:46:53;;;;;;;42.15;27.60;;;;;;;;;;5084573;28;20259;-79
2020/12/05 06:49:40;;;;;;;42.38;27.40;;;;;;;;;;5079058;28;20194;-78
2020/12/05 06:52:24;;;;;;;40.72;28.52;;;;;;;;;;5073918;28;20184;-77
2020/12/05 06:54:53;;;;;;;40.83;27.80;;;;;;;;;;5077161;28;20203;-78
2020/12/05 06:57:20;;;;;;;40.60;26.88;;;;;;;;;;5082153;28;20510;-76
2020/12/05 06:59:46;;;;;;;43.53;29.02;;;;;;;;;;5094220;28;20203;-77
2020/12/05 07:02:26;;;;;;;41.50;26.23;;;;;;;;;;5091599;28;20180;-77
2020/12/05 07:04:52;;;;;;;43.13;29.73;;;;;;;;;;5088482;28;20309;-76
2020/12/05 07:07:31;;;;;;;42.67;27.67;;;;;;;;;;5094880;28;20176;-76
2020/12/05 07:09:57;;;;;;;44.05;29.10;;;;;;;;;;5086418;28;20175;-77
2020/12/05 07:12:23;;;;;;;40.17;27.13;;;;;;;;;;5093670;28;20179;-76
2020/12/05 07:14:49;;;;;;;43.80;28.42;;;;;;;;;;5093057;28;20214;-77
2020/12/05 07:17:24;;;;;;;40.60;27.42;;;;;;;;;;5093898;28;20189;-78
2020/12/05 07:19:50;;;;;;;42.78;28.45;;;;;;;;;;5092401;28;20643;-77
2020/12/05 07:22:17;;;;;;;43.08;28.08;;;;;;;;;;5085906;28;20176;-78
2020/12/05 07:24:44;;;;;;;42.25;28.17;;;;;;;;;;5087572;28;20197;-76
2020/12/05 07:27:10;;;;;;;46.20;29.80;;;;;;;;;;5093297;28;20191;-78
2020/12/05 07:29:36;;;;;;;40.33;26.95;;;;;;;;;;5078708;28;20172;-77
2020/12/05 07:32:06;;;;;;;44.72;28.92;;;;;;;;;;5080893;28;20521;-78
2020/12/05 07:34:32;;;;;;;43.78;27.80;;;;;;;;;;5089413;28;20195;-77
2020/12/05 07:36:58;;;;;;;45.53;28.75;;;;;;;;;;5093860;28;20172;-77
2020/12/05 07:39:24;;;;;;;40.60;26.83;;;;;;;;;;5091484;28;20280;-78
2020/12/05 07:41:50;;;;;;;42.30;28.45;;;;;;;;;;5073595;28;20283;-77
2020/12/05 07:44:19;;;;;;;42.30;28.30;;;;;;;;;;5083132;28;20203;-78
2020/12/05 07:46:45;;;;;;;44.15;28.42;;;;;;;;;;5075645;28;20266;-77
2020/12/05 07:49:11;;;;;;;45.47;29.25;;;;;;;;;;5086881;28;20203;-77
2020/12/05 07:51:38;;;;;;;44.05;29.45;;;;;;;;;;5081502;28;20525;-77
2020/12/05 07:54:10;;;;;;;43.08;28.67;;;;;;;;;;5093110;28;20206;-77
2020/12/05 07:56:36;;;;;;;44.97;29.52;;;;;;;;;;5075142;28;20184;-77
2020/12/05 07:59:03;;;;;;;40.17;27.95;;;;;;;;;;5089253;28;20202;-78
2020/12/05 08:01:29;;;;;;;44.90;29.30;;;;;;;;;;5093617;28;20178;-78
2020/12/05 08:04:08;;;;;;;43.53;28.42;;;;;;;;;;5094427;28;20229;-79
2020/12/05 08:06:34;;;;;;;41.60;27.92;;;;;;;;;;5098318;28;20182;-77
2020/12/05 08:09:04;;;;;;;43.55;28.70;;;;;;;;;;5084131;28;20207;-77
2020/12/05 08:11:42;;;;;;;43.08;28.98;;;;;;;;;;5097231;28;20232;-79
2020/12/05 08:14:11;;;;;;;45.13;30.80;;;;;;;;;;5081128;28;20192;-77
2020/12/05 08:16:38;;;;;;;45.20;30.25;;;;;;;;;;5077582;28;20187;-76
2020/12/05 08:19:04;;;;;;;46.50;29.48;;;;;;;;;;5081909;28;20200;-77
2020/12/05 08:21:30;;;;;;;44.78;29.17;;;;;;;;;;5097314;28;20168;-78
2020/12/05 08:24:06;;;;;;;45.67;28.92;;;;;;;;;;5096950;28;20205;-77
2020/12/05 08:26:32;;;;;;;45.85;28.65;;;;;;;;;;5097002;28;20183;-76
2020/12/05 08:28:59;;;;;;;44.17;29.08;;;;;;;;;;5079606;28;20208;-78
2020/12/05 08:31:25;;;;;;;45.05;28.55;;;;;;;;;;5076690;28;20203;-78
2020/12/05 08:33:51;;;;;;;42.55;28.40;;;;;;;;;;5076356;28;20227;-77
2020/12/05 08:36:21;;;;;;;42.63;28.08;;;;;;;;;;5076960;28;20173;-78
2020/12/05 08:38:48;;;;;;;45.78;29.83;;;;;;;;;;5075457;28;20277;-78
2020/12/05 08:41:14;;;;;;;49.47;30.42;;;;;;;;;;5085068;28;20179;-77
2020/12/05 08:43:40;;;;;;;43.53;28.88;;;;;;;;;;5072371;28;20293;-78
2020/12/05 08:46:16;;;;;;;48.08;30.20;;;;;;;;;;5090062;28;20187;-80
2020/12/05 08:48:42;;;;;;;45.95;29.95;;;;;;;;;;5075696;28;20203;-78
2020/12/05 08:51:08;;;;;;;48.05;29.75;;;;;;;;;;5072989;28;20184;-79
2020/12/05 08:53:35;;;;;;;42.80;28.65;;;;;;;;;;5076611;28;20203;-78
2020/12/05 08:56:01;;;;;;;48.30;29.17;;;;;;;;;;5072914;28;20177;-77
2020/12/05 08:58:42;;;;;;;40.65;29.17;;;;;;;;;;5084605;28;20283;-78
2020/12/05 09:01:08;;;;;;;48.38;30.05;;;;;;;;;;5081475;28;20194;-79
2020/12/05 09:03:37;;;;;;;44.85;28.60;;;;;;;;;;5092563;28;20548;-77
2020/12/05 09:06:03;;;;;;;43.88;28.67;;;;;;;;;;5084746;28;20262;-78
2020/12/05 09:08:29;;;;;;;41.88;26.98;;;;;;;;;;5079261;28;20614;-78
2020/12/05 09:10:55;;;;;;;47.05;29.25;;;;;;;;;;5092040;28;20240;-79
2020/12/05 09:13:23;;;;;;;45.40;28.65;;;;;;;;;;5082140;28;20256;-78
2020/12/05 09:15:55;;;;;;;44.15;29.40;;;;;;;;;;5093472;28;20171;-78
2020/12/05 09:18:21;;;;;;;44.67;29.02;;;;;;;;;;5075904;28;20248;-77
2020/12/05 09:20:47;;;;;;;42.03;27.13;;;;;;;;;;5075762;28;20179;-77
2020/12/05 09:23:13;;;;;;;46.90;29.17;;;;;;;;;;5074514;28;20168;-78
2020/12/05 09:25:40;;;;;;;46.20;29.70;;;;;;;;;;5074684;28;20175;-77
2020/12/05 09:28:10;;;;;;;43.60;27.90;;;;;;;;;;5096253;28;20199;-78
2020/12/05 09:30:37;;;;;;;43.88;28.45;;;;;;;;;;5096200;28;20172;-79
2020/12/05 09:33:13;;;;;;;52.85;29.50;;;;;;;;;;5095544;28;20635;-78
2020/12/05 09:35:39;;;;;;;46.70;29.15;;;;;;;;;;5094290;28;20226;-79
2020/12/05 09:38:06;;;;;;;45.63;29.42;;;;;;;;;;5094544;28;20605;-78
2020/12/05 09:40:32;;;;;;;43.30;28.17;;;;;;;;;;5087221;28;20188;-79
2020/12/05 09:42:59;;;;;;;44.78;27.88;;;;;;;;;;5076981;28;20195;-77
2020/12/05 09:45:25;;;;;;;42.80;28.55;;;;;;;;;;5084591;28;20544;-79
2020/12/05 09:47:51;;;;;;;47.35;30.45;;;;;;;;;;5091618;28;20621;-78
2020/12/05 09:50:17;;;;;;;49.42;31.33;;;;;;;;;;5091645;28;20183;-79
2020/12/05 09:52:44;;;;;;;44.25;28.85;;;;;;;;;;5071911;28;20215;-78
2020/12/05 09:55:10;;;;;;;44.45;29.30;;;;;;;;;;5080587;28;20252;-78
2020/12/05 09:57:36;;;;;;;45.53;28.80;;;;;;;;;;5071784;28;20216;-79
2020/12/05 10:00:05;;;;;;;44.80;29.33;;;;;;;;;;5075619;28;20199;-79
2020/12/05 10:02:31;;;;;;;50.55;31.98;;;;;;;;;;5071277;28;20184;-78
2020/12/05 10:04:58;;;;;;;48.55;31.05;;;;;;;;;;5082602;28;20199;-79
2020/12/05 10:07:24;;;;;;;43.13;28.80;;;;;;;;;;5071430;28;20188;-78
2020/12/05 10:09:50;;;;;;;44.90;29.15;;;;;;;;;;5081997;28;20548;-78
2020/12/05 10:12:16;;;;;;;44.08;29.55;;;;;;;;;;5089249;28;20205;-77
2020/12/05 10:14:42;;;;;;;45.33;30.65;;;;;;;;;;5082402;28;20831;-79
2020/12/05 10:17:08;;;;;;;45.83;29.98;;;;;;;;;;5071805;28;20180;-77
2020/12/05 10:19:34;;;;;;;45.35;30.38;;;;;;;;;;5084369;28;20204;-78
2020/12/05 10:22:00;;;;;;;39.35;27.38;;;;;;;;;;5090878;28;20648;-79
2020/12/05 10:24:26;;;;;;;42.72;28.98;;;;;;;;;;5090799;28;20190;-78
2020/12/05 10:26:55;;;;;;;40.88;27.52;;;;;;;;;;5076238;28;20191;-78
2020/12/05 10:29:22;;;;;;;43.33;28.65;;;;;;;;;;5083269;28;20686;-79
2020/12/05 10:31:49;;;;;;;42.88;28.23;;;;;;;;;;5070491;28;20541;-78
2020/12/05 10:34:15;;;;;;;45.13;29.55;;;;;;;;;;5074072;28;20757;-80
2020/12/05 10:36:41;;;;;;;39.03;27.20;;;;;;;;;;5085109;28;20183;-78
2020/12/05 10:39:08;;;;;;;40.88;28.13;;;;;;;;;;5086923;28;20195;-78
2020/12/05 10:41:36;;;;;;;37.78;27.65;;;;;;;;;;5085673;28;20179;-76
2020/12/05 10:44:02;;;;;;;39.95;27.05;;;;;;;;;;5088354;28;20179;-78
2020/12/05 10:46:28;;;;;;;42.08;27.98;;;;;;;;;;5084165;28;20179;-79
2020/12/05 10:48:54;;;;;;;38.40;26.80;;;;;;;;;;5077409;28;20200;-78
2020/12/05 10:51:24;;;;;;;40.60;27.92;;;;;;;;;;5072336;28;20184;-79
2020/12/05 10:53:50;;;;;;;38.22;27.90;;;;;;;;;;5070499;28;20199;-81
2020/12/05 10:56:16;;;;;;;37.72;26.88;;;;;;;;;;5070393;28;20175;-77
2020/12/05 10:58:42;;;;;;;38.67;25.85;;;;;;;;;;5080698;28;20192;-77
2020/12/05 11:01:08;;;;;;;36.65;26.80;;;;;;;;;;5090515;28;20189;-79
2020/12/05 11:03:34;;;;;;;37.80;26.33;;;;;;;;;;5089478;28;20478;-78
2020/12/05 11:06:00;;;;;;;37.17;26.35;;;;;;;;;;5082581;28;20274;-78
2020/12/05 11:08:26;;;;;;;32.30;23.10;;;;;;;;;;5072714;28;20218;-78
2020/12/05 11:10:52;;;;;;;35.13;24.10;;;;;;;;;;5089281;28;20190;-78
2020/12/05 11:13:18;;;;;;;36.13;24.20;;;;;;;;;;5081753;28;20186;-77
2020/12/05 11:15:44;;;;;;;32.47;22.58;;;;;;;;;;5090175;28;20180;-77
2020/12/05 11:18:10;;;;;;;32.50;23.88;;;;;;;;;;5086330;28;20223;-78
2020/12/05 11:20:36;;;;;;;32.83;23.73;;;;;;;;;;5068983;28;20526;-78
2020/12/05 11:23:02;;;;;;;32.63;24.98;;;;;;;;;;5069743;28;20712;-78
2020/12/05 11:25:29;;;;;;;31.08;21.50;;;;;;;;;;5069580;28;20215;-78
2020/12/05 11:27:55;;;;;;;32.75;22.50;;;;;;;;;;5069460;28;20211;-78
2020/12/05 11:30:21;;;;;;;32.85;23.30;;;;;;;;;;5069716;28;20188;-78
2020/12/05 11:32:47;;;;;;;31.15;23.10;;;;;;;;;;5069585;28;20179;-78
2020/12/05 11:35:13;;;;;;;30.27;21.08;;;;;;;;;;5075579;28;20572;-78
2020/12/05 11:37:39;;;;;;;30.30;21.00;;;;;;;;;;5089458;28;20564;-78
2020/12/05 11:40:05;;;;;;;27.00;20.25;;;;;;;;;;5080213;28;20180;-78
2020/12/05 11:42:34;;;;;;;23.70;18.40;;;;;;;;;;5074761;28;20184;-77
2020/12/05 11:45:00;;;;;;;26.40;19.60;;;;;;;;;;5078489;28;20533;-78
2020/12/05 11:47:27;;;;;;;26.23;20.35;;;;;;;;;;5089501;28;20178;-78
2020/12/05 11:49:53;;;;;;;27.25;20.98;;;;;;;;;;5089303;28;20641;-77
2020/12/05 11:52:19;;;;;;;28.45;20.52;;;;;;;;;;5085863;28;20189;-78
2020/12/05 11:54:45;;;;;;;27.67;20.60;;;;;;;;;;5073826;28;20246;-78
2020/12/05 11:57:11;;;;;;;29.27;20.92;;;;;;;;;;5079971;28;20214;-77
2020/12/05 11:59:40;;;;;;;24.25;19.23;;;;;;;;;;5079389;28;20190;-77
2020/12/05 12:02:07;;;;;;;25.25;18.95;;;;;;;;;;5082338;28;20291;-77
2020/12/05 12:04:33;;;;;;;26.67;20.08;;;;;;;;;;5088877;28;20262;-77
2020/12/05 12:06:59;;;;;;;24.58;18.08;;;;;;;;;;5076253;28;20257;-78
2020/12/05 12:09:25;;;;;;;25.88;18.88;;;;;;;;;;5086857;28;20269;-76
2020/12/05 12:11:51;;;;;;;22.48;17.52;;;;;;;;;;5089134;28;20190;-76
2020/12/05 12:14:17;;;;;;;22.60;17.70;;;;;;;;;;5088770;28;20570;-77
2020/12/05 12:16:46;;;;;;;22.98;18.42;;;;;;;;;;5089201;28;20660;-78
2020/12/05 12:19:12;;;;;;;23.38;17.83;;;;;;;;;;5079687;28;20195;-78
2020/12/05 12:21:39;;;;;;;23.65;17.52;;;;;;;;;;5089288;28;20284;-78
2020/12/05 12:24:05;;;;;;;21.00;15.75;;;;;;;;;;5076876;28;20184;-77
2020/12/05 12:26:31;;;;;;;20.10;15.52;;;;;;;;;;5066499;28;20192;-78
2020/12/05 12:28:57;;;;;;;22.33;15.88;;;;;;;;;;5076009;28;20581;-78
2020/12/05 12:31:23;;;;;;;19.95;15.50;;;;;;;;;;5084081;28;20578;-77
2020/12/05 12:33:49;;;;;;;22.00;15.75;;;;;;;;;;5088755;28;20210;-77
2020/12/05 12:36:16;;;;;;;23.60;16.70;;;;;;;;;;5088219;28;20647;-78
2020/12/05 12:38:42;;;;;;;22.65;16.33;;;;;;;;;;5089167;28;20191;-77
2020/12/05 12:41:08;;;;;;;22.88;17.48;;;;;;;;;;5070315;28;20180;-78
2020/12/05 12:43:34;;;;;;;25.30;17.73;;;;;;;;;;5068563;28;20180;-79
2020/12/05 12:46:01;;;;;;;23.77;18.15;;;;;;;;;;5086708;28;20210;-79
2020/12/05 12:50:53;;;;;;;24.67;17.35;;;;;;;;;;5091725;28;20778;-76
2020/12/05 12:53:19;;;;;;;24.85;17.10;;;;;;;;;;5090910;28;20183;-77
2020/12/05 12:55:46;;;;;;;25.02;18.15;;;;;;;;;;5092720;28;20175;-80
2020/12/05 12:58:23;;;;;;;26.25;18.10;;;;;;;;;;5090338;28;20627;-77
2020/12/05 13:00:49;;;;;;;23.08;16.65;;;;;;;;;;5091806;28;20182;-76
2020/12/05 13:03:15;;;;;;;22.13;17.13;;;;;;;;;;5092105;28;20197;-76
2020/12/05 13:05:41;;;;;;;24.30;17.73;;;;;;;;;;5082261;28;20183;-77
2020/12/05 13:08:07;;;;;;;24.98;17.42;;;;;;;;;;5072193;28;20211;-78
2020/12/05 13:10:33;;;;;;;27.00;18.48;;;;;;;;;;5076389;28;20191;-77
2020/12/05 13:12:59;;;;;;;24.02;17.75;;;;;;;;;;5078652;28;20196;-77
2020/12/05 13:15:25;;;;;;;22.55;17.48;;;;;;;;;;5091798;28;20559;-77
2020/12/05 13:17:51;;;;;;;22.38;17.10;;;;;;;;;;5075915;28;20200;-78
2020/12/05 13:20:17;;;;;;;24.30;17.25;;;;;;;;;;5081908;28;20292;-78
2020/12/05 13:22:43;;;;;;;22.65;18.02;;;;;;;;;;5091903;28;20930;-77
2020/12/05 13:25:09;;;;;;;25.15;18.02;;;;;;;;;;5077441;28;20191;-79
2020/12/05 13:27:35;;;;;;;23.55;18.02;;;;;;;;;;5092468;28;20254;-77
2020/12/05 13:30:01;;;;;;;25.38;18.40;;;;;;;;;;5072772;28;20659;-77
2020/12/05 13:32:27;;;;;;;27.42;20.00;;;;;;;;;;5075891;28;20284;-77
2020/12/05 13:34:53;;;;;;;26.48;19.27;;;;;;;;;;5091219;28;20280;-78
2020/12/05 13:37:19;;;;;;;21.40;16.55;;;;;;;;;;5092035;28;20183;-77
2020/12/05 13:39:45;;;;;;;24.77;17.98;;;;;;;;;;5092231;28;20172;-77
2020/12/05 13:42:11;;;;;;;24.48;16.95;;;;;;;;;;5091755;28;20179;-77
2020/12/05 13:44:37;;;;;;;24.17;17.45;;;;;;;;;;5091411;28;20906;-77
2020/12/05 13:47:04;;;;;;;23.63;17.73;;;;;;;;;;5091923;28;20191;-77
2020/12/05 13:49:32;;;;;;;23.95;17.98;;;;;;;;;;5071897;28;20760;-77
2020/12/05 13:52:05;;;;;;;25.15;18.52;;;;;;;;;;5071588;28;20919;-78
2020/12/05 13:54:31;;;;;;;23.70;18.67;;;;;;;;;;5071231;28;20199;-78
2020/12/05 13:56:57;;;;;;;23.00;17.70;;;;;;;;;;5080954;28;20592;-77
2020/12/05 13:59:24;;;;;;;24.23;17.13;;;;;;;;;;5074417;28;20851;-77
2020/12/05 14:01:54;;;;;;;24.80;17.83;;;;;;;;;;5091543;28;20540;-78
2020/12/05 14:04:20;;;;;;;26.65;17.73;;;;;;;;;;5089913;28;20277;-78
2020/12/05 14:06:46;;;;;;;22.50;17.48;;;;;;;;;;5091557;28;20188;-78
2020/12/05 14:09:12;;;;;;;26.08;18.65;;;;;;;;;;5090905;28;20211;-79
2020/12/05 14:11:39;;;;;;;27.83;18.60;;;;;;;;;;5091412;28;20175;-78
2020/12/05 14:14:05;;;;;;;23.38;18.35;;;;;;;;;;5085659;28;20204;-79
2020/12/05 14:16:31;;;;;;;28.02;20.05;;;;;;;;;;5090857;28;20186;-78
2020/12/05 14:18:57;;;;;;;27.60;19.55;;;;;;;;;;5090896;28;20218;-77